createdAt,value
2019-04-29T00:03:17.659Z,1.40
2019-04-29T00:08:23.071Z,0.80
2019-04-29T00:13:28.955Z,0.93
2019-04-29T00:18:56.796Z,0.93
2019-04-29T00:24:03.885Z,1.07
2019-04-29T00:29:09.592Z,0.93
2019-04-29T00:34:15.243Z,0.90
2019-04-29T00:39:39.712Z,0.70
2019-04-29T00:44:45.483Z,1.23
2019-04-29T00:49:50.875Z,1.10
2019-04-29T00:55:05.781Z,0.60
2019-04-29T01:00:14.410Z,0.87
2019-04-29T01:05:22.511Z,0.90
2019-04-29T01:10:31.935Z,0.63
2019-04-29T01:15:37.214Z,1.10
2019-04-29T01:20:42.261Z,0.77
2019-04-29T01:25:49.668Z,0.80
2019-04-29T01:30:57.659Z,1.13
2019-04-29T01:36:40.916Z,1.43
2019-04-29T01:42:17.609Z,1.10
2019-04-29T01:47:22.887Z,1.57
2019-04-29T01:52:28.056Z,1.20
2019-04-29T01:57:33.034Z,0.80
2019-04-29T02:02:38.289Z,1.07
2019-04-29T02:07:43.180Z,0.70
2019-04-29T02:12:48.593Z,0.80
2019-04-29T02:17:53.828Z,1.33
2019-04-29T02:23:17.360Z,0.83
2019-04-29T02:28:22.628Z,1.03
2019-04-29T02:33:28.666Z,1.70
2019-04-29T02:38:42.842Z,0.83
2019-04-29T02:43:49.718Z,1.77
2019-04-29T02:48:54.542Z,1.13
2019-04-29T02:53:59.712Z,1.33
2019-04-29T02:59:05.831Z,0.90
2019-04-29T03:04:24.356Z,1.33
2019-04-29T03:09:30.962Z,1.30
2019-04-29T03:14:36.254Z,0.77
2019-04-29T03:20:00.573Z,0.63
2019-04-29T03:25:06.581Z,1.00
2019-04-29T03:30:11.885Z,1.10
2019-04-29T03:35:17.162Z,0.80
2019-04-29T03:40:22.411Z,0.80
2019-04-29T03:45:27.789Z,0.73
2019-04-29T03:50:32.970Z,1.10
2019-04-29T03:55:40.483Z,1.03
2019-04-29T04:00:46.900Z,0.93
2019-04-29T04:06:10.102Z,0.73
2019-04-29T04:11:15.452Z,0.63
2019-04-29T04:16:28.390Z,1.20
2019-04-29T04:21:33.826Z,1.20
2019-04-29T04:26:39.631Z,1.07
2019-04-29T04:31:44.679Z,0.90
2019-04-29T04:36:49.908Z,1.70
2019-04-29T04:41:55.093Z,1.03
2019-04-29T04:47:00.257Z,1.20
2019-04-29T04:52:05.179Z,1.60
2019-04-29T04:57:10.565Z,1.00
2019-04-29T05:02:15.723Z,1.37
2019-04-29T05:07:20.721Z,0.90
2019-04-29T05:12:25.632Z,1.13
2019-04-29T05:17:33.787Z,1.63
2019-04-29T05:22:39.157Z,2.13
2019-04-29T05:27:44.369Z,1.70
2019-04-29T05:32:49.748Z,1.93
2019-04-29T05:38:12.672Z,1.13
2019-04-29T05:43:21.052Z,1.30
2019-04-29T05:48:27.590Z,1.40
2019-04-29T05:53:43.209Z,1.10
2019-04-29T05:58:48.759Z,1.50
2019-04-29T06:03:54.199Z,1.87
2019-04-29T06:08:59.144Z,1.70
2019-04-29T06:14:04.714Z,1.73
2019-04-29T06:19:09.920Z,2.90
2019-04-29T06:24:15.244Z,2.70
2019-04-29T06:29:20.475Z,2.10
2019-04-29T06:34:26.111Z,2.00
2019-04-29T06:39:31.231Z,2.80
2019-04-29T06:44:36.185Z,2.10
2019-04-29T06:49:41.501Z,2.50
2019-04-29T06:54:46.638Z,2.57
2019-04-29T06:59:54.639Z,2.43
2019-04-29T07:04:59.057Z,3.00
2019-04-29T07:10:04.962Z,2.97
2019-04-29T07:15:12.319Z,3.23
2019-04-29T07:20:17.353Z,3.30
2019-04-29T07:25:24.701Z,3.00
2019-04-29T07:30:29.614Z,3.00
2019-04-29T07:35:38.003Z,3.33
2019-04-29T07:40:43.326Z,3.47
2019-04-29T07:46:03.566Z,2.50
2019-04-29T07:51:06.041Z,3.20
2019-04-29T07:56:10.964Z,3.40
2019-04-29T08:01:19.931Z,3.57
2019-04-29T08:06:22.670Z,2.63
2019-04-29T08:11:27.843Z,4.03
2019-04-29T08:16:33.155Z,4.50
2019-04-29T08:21:38.981Z,5.20
2019-04-29T08:26:47.296Z,4.00
2019-04-29T08:31:51.798Z,3.70
2019-04-29T08:36:58.267Z,4.13
2019-04-29T08:42:09.086Z,4.47
2019-04-29T08:47:22.977Z,4.33
2019-04-29T08:52:27.230Z,2.60
2019-04-29T08:57:36.648Z,2.70
2019-04-29T09:02:41.524Z,4.07
2019-04-29T09:07:47.883Z,3.10
2019-04-29T09:12:57.063Z,6.07
2019-04-29T09:18:03.252Z,6.13
2019-04-29T09:23:12.285Z,3.77
2019-04-29T09:28:27.158Z,4.27
2019-04-29T09:33:26.480Z,2.40
2019-04-29T09:38:32.442Z,6.33
2019-04-29T09:44:03.949Z,3.90
2019-04-29T09:49:08.647Z,3.67
2019-04-29T09:54:15.960Z,3.43
2019-04-29T09:59:32.840Z,3.23
2019-04-29T10:04:56.482Z,3.53
2019-04-29T10:09:57.362Z,2.60
2019-04-29T10:15:01.296Z,3.93
2019-04-29T10:20:15.354Z,3.50
2019-04-29T10:25:23.833Z,6.00
2019-04-29T10:30:32.378Z,5.23
2019-04-29T10:35:40.822Z,6.67
2019-04-29T10:41:10.671Z,5.07
2019-04-29T10:46:34.538Z,3.73
2019-04-29T10:51:39.925Z,4.57
2019-04-29T10:56:46.238Z,6.43
2019-04-29T11:02:49.769Z,7.27
2019-04-29T11:08:02.674Z,7.90
2019-04-29T11:13:08.165Z,5.37
2019-04-29T11:18:13.632Z,4.50
2019-04-29T11:23:50.731Z,4.57
2019-04-29T11:28:56.162Z,7.40
2019-04-29T11:34:21.062Z,5.87
2019-04-29T11:39:27.514Z,6.73
2019-04-29T11:44:33.275Z,4.73
2019-04-29T11:49:48.062Z,4.73
2019-04-29T11:54:54.299Z,4.63
2019-04-29T12:00:15.836Z,4.90
2019-04-29T12:05:32.260Z,4.93
2019-04-29T12:10:46.663Z,7.43
2019-04-29T12:16:10.998Z,6.63
2019-04-29T12:21:36.372Z,8.07
2019-04-29T12:26:44.359Z,8.10
2019-04-29T12:32:14.359Z,8.10
2019-04-29T12:37:45.201Z,4.97
2019-04-29T12:43:25.315Z,8.60
2019-04-29T12:48:31.372Z,8.83
2019-04-29T12:53:36.749Z,6.77
2019-04-29T12:58:42.583Z,6.60
2019-04-29T13:04:03.022Z,4.43
2019-04-29T13:09:18.027Z,8.40
2019-04-29T13:14:28.611Z,6.03
2019-04-29T13:19:39.162Z,7.60
2019-04-29T13:24:45.197Z,6.70
2019-04-29T13:29:50.988Z,7.10
2019-04-29T13:35:00.211Z,5.17
2019-04-29T13:40:06.654Z,9.10
2019-04-29T13:45:14.737Z,4.60
2019-04-29T13:50:38.668Z,6.10
2019-04-29T13:55:47.677Z,7.80
2019-04-29T14:00:59.900Z,5.37
2019-04-29T14:06:06.871Z,7.53
2019-04-29T14:11:13.351Z,6.33
2019-04-29T14:16:19.495Z,6.70
2019-04-29T14:21:25.781Z,8.00
2019-04-29T14:26:36.864Z,6.90
2019-04-29T14:31:40.658Z,5.40
2019-04-29T14:36:46.973Z,7.20
2019-04-29T14:41:57.416Z,7.57
2019-04-29T14:47:13.609Z,7.47
2019-04-29T14:52:20.740Z,5.00
2019-04-29T14:57:27.150Z,4.10
2019-04-29T15:02:33.355Z,5.97
2019-04-29T15:07:39.545Z,6.47
2019-04-29T15:13:01.501Z,8.10
2019-04-29T15:18:15.871Z,7.03
2019-04-29T15:23:27.965Z,5.77
2019-04-29T15:28:24.469Z,6.40
2019-04-29T15:33:30.471Z,8.53
2019-04-29T15:38:38.860Z,5.80
2019-04-29T15:49:09.949Z,8.43
2019-04-29T15:54:18.111Z,6.97
2019-04-29T15:59:24.017Z,4.00
2019-04-29T16:04:34.608Z,6.47
2019-04-29T16:10:01.500Z,4.60
2019-04-29T16:15:07.395Z,6.43
2019-04-29T16:20:12.719Z,8.53
2019-04-29T16:25:18.026Z,6.20
2019-04-29T16:35:34.661Z,7.47
2019-04-29T16:40:41.370Z,5.30
2019-04-29T16:45:59.342Z,5.00
2019-04-29T16:51:06.698Z,9.13
2019-04-29T16:56:16.054Z,6.73
2019-04-29T17:01:18.604Z,4.00
2019-04-29T17:06:23.938Z,5.50
2019-04-29T17:11:30.690Z,4.67
2019-04-29T17:16:36.321Z,4.27
2019-04-29T17:21:41.721Z,5.03
2019-04-29T17:26:54.287Z,6.73
2019-04-29T17:32:18.100Z,5.07
2019-04-29T17:35:14.230Z,8.13
2019-04-29T17:37:24.732Z,4.80
2019-04-29T17:42:34.342Z,4.97
2019-04-29T17:47:57.694Z,4.57
2019-04-29T17:53:05.229Z,5.87
2019-04-29T17:58:19.347Z,5.77
2019-04-29T18:03:41.503Z,5.47
2019-04-29T18:09:13.492Z,4.70
2019-04-29T18:14:18.732Z,2.70
2019-04-29T18:19:40.688Z,3.10
2019-04-29T18:25:00.871Z,3.90
2019-04-29T18:30:12.134Z,5.77
2019-04-29T18:35:15.335Z,3.17
2019-04-29T18:40:22.486Z,4.07
2019-04-29T18:45:29.688Z,4.07
2019-04-29T18:50:38.891Z,4.73
2019-04-29T18:55:42.171Z,3.63
2019-04-29T19:00:52.387Z,4.93
2019-04-29T19:05:57.676Z,4.00
2019-04-29T19:11:07.153Z,4.57
2019-04-29T19:16:12.736Z,3.17
2019-04-29T19:21:17.866Z,3.20
2019-04-29T19:26:27.627Z,4.93
2019-04-29T19:31:36.602Z,4.80
2019-04-29T19:36:40.338Z,3.50
2019-04-29T19:41:50.280Z,5.67
2019-04-29T19:46:52.632Z,5.37
2019-04-29T19:51:58.094Z,6.17
2019-04-29T19:57:07.344Z,4.00
2019-04-29T20:02:11.160Z,3.23
2019-04-29T20:07:18.107Z,3.00
2019-04-29T20:12:25.690Z,2.93
2019-04-29T20:17:57.595Z,4.47
2019-04-29T20:23:03.394Z,4.33
2019-04-29T20:28:17.200Z,5.57
2019-04-29T20:33:16.538Z,6.37
2019-04-29T20:38:25.415Z,6.80
2019-04-29T20:43:31.564Z,8.53
2019-04-29T20:48:37.754Z,7.85
2019-04-29T20:53:48.673Z,7.07
2019-04-29T20:58:54.981Z,7.73
2019-04-29T21:04:00.565Z,9.90
2019-04-29T21:09:07.990Z,8.77
2019-04-29T21:14:20.189Z,5.77
2019-04-29T21:19:25.689Z,7.97
2019-04-29T21:24:30.592Z,8.50
2019-04-29T21:29:35.938Z,7.60
2019-04-29T21:34:50.031Z,7.37
2019-04-29T21:40:20.399Z,8.83
2019-04-29T21:45:31.268Z,8.30
2019-04-29T21:50:38.040Z,6.33
2019-04-29T21:55:43.385Z,7.67
2019-04-29T22:00:48.725Z,8.60
2019-04-29T22:05:55.232Z,8.00
2019-04-29T22:11:05.011Z,7.57
2019-04-29T22:16:11.323Z,10.70
2019-04-29T22:21:21.394Z,6.97
2019-04-29T22:26:23.330Z,9.93
2019-04-29T22:31:33.982Z,10.67
2019-04-29T22:36:36.077Z,9.73
2019-04-29T22:41:59.941Z,7.40
2019-04-29T22:47:06.115Z,10.27
2019-04-29T22:52:11.424Z,14.40
2019-04-29T22:57:16.639Z,11.40
2019-04-29T23:02:25.172Z,9.33
2019-04-29T23:07:29.006Z,8.10
2019-04-29T23:15:22.525Z,5.30
2019-04-29T23:20:45.569Z,8.60
2019-04-29T23:26:10.104Z,9.27
2019-04-29T23:31:15.302Z,6.10
2019-04-29T23:36:20.881Z,7.63
2019-04-29T23:41:32.865Z,7.80
2019-04-29T23:46:34.332Z,6.40
2019-04-29T23:51:40.129Z,8.97
2019-04-29T23:57:16.392Z,10.47
